Time;durP1;ratioP1;P1;durP2;ratioP2;P2;SDS_P1;SDS_P2;PMS_P1;PMS_P2;Temp;Humidity;BMP_temperature;BMP_pressure;BME280_temperature;BME280_humidity;BME280_pressure;Samples;Min_cycle;Max_cycle;Signal;HPM_P1;HPM_P2
2022/05/08 00:02:01;;;;;;;24.30;5.32;;;;;;;;;;4993198;28;20053;-67
2022/05/08 00:04:27;;;;;;;29.88;5.80;;;;;;;;;;4960183;28;20420;-66
2022/05/08 00:06:53;;;;;;;20.20;4.30;;;;;;;;;;4975653;28;20030;-66
2022/05/08 00:09:18;;;;;;;19.00;4.10;;;8.80;99.90;;;;;;4992353;28;20489;-66
2022/05/08 00:11:44;;;;;;;21.80;4.85;;;;;;;;;;4992922;28;20114;-67
2022/05/08 00:14:10;;;;;;;17.42;4.38;;;;;;;;;;4975475;28;20108;-66
2022/05/08 00:16:36;;;;;;;22.52;4.95;;;;;;;;;;4975465;28;20057;-66
2022/05/08 00:19:02;;;;;;;14.55;4.55;;;;;;;;;;4958689;28;20515;-66
2022/05/08 00:21:28;;;;;;;19.75;4.80;;;;;;;;;;4992514;28;20589;-66
2022/05/08 00:23:54;;;;;;;16.48;4.13;;;;;;;;;;4992838;28;20046;-66
2022/05/08 00:26:20;;;;;;;25.10;4.43;;;8.90;99.90;;;;;;4975220;28;20124;-66
2022/05/08 00:28:46;;;;;;;25.25;5.63;;;;;;;;;;4959128;28;20046;-66
2022/05/08 00:31:11;;;;;;;15.57;4.30;;;10.00;99.90;;;;;;4991966;28;20038;-66
2022/05/08 00:33:38;;;;;;;25.42;4.93;;;;;;;;;;4975034;28;20096;-66
2022/05/08 00:36:04;;;;;;;23.55;5.53;;;8.80;99.90;;;;;;4958950;28;20053;-67
2022/05/08 00:38:30;;;;;;;27.30;5.60;;;8.70;99.90;;;;;;4992490;28;20492;-67
2022/05/08 00:40:55;;;;;;;15.15;4.18;;;8.90;99.90;;;;;;4991664;28;20031;-66
2022/05/08 00:43:34;;;;;;;21.83;5.10;;;9.10;99.90;;;;;;4992459;28;20515;-66
2022/05/08 00:46:02;;;;;;;19.77;4.43;;;8.80;99.90;;;;;;4974916;28;20042;-66
2022/05/08 00:48:29;;;;;;;22.80;4.88;;;;;;;;;;4974836;28;20058;-66
2022/05/08 00:50:55;;;;;;;19.80;4.38;;;8.80;99.90;;;;;;4991492;28;20070;-66
2022/05/08 00:53:22;;;;;;;15.82;4.28;;;8.70;99.90;;;;;;4992051;28;20492;-66
2022/05/08 00:55:48;;;;;;;16.17;4.00;;;;;;;;;;4974776;28;20193;-67
2022/05/08 00:58:15;;;;;;;21.40;4.63;;;8.80;99.90;;;;;;4974969;28;20420;-66
2022/05/08 01:00:41;;;;;;;26.75;6.38;;;8.60;99.90;;;;;;4973887;28;20533;-66
2022/05/08 01:03:07;;;;;;;15.68;4.28;;;;;;;;;;4991943;28;20082;-67
2022/05/08 01:05:37;;;;;;;23.25;5.53;;;8.60;99.90;;;;;;4991994;28;20493;-66
2022/05/08 01:08:03;;;;;;;19.40;4.55;;;;;;;;;;4974404;28;20038;-66
2022/05/08 01:10:29;;;;;;;21.77;4.47;;;;;;;;;;4990931;28;20042;-66
2022/05/08 01:12:55;;;;;;;23.92;5.65;;;;;;;;;;4974411;28;20038;-66
2022/05/08 01:15:21;;;;;;;22.52;3.88;;;;;;;;;;4974276;28;20507;-66
2022/05/08 01:17:48;;;;;;;20.15;4.47;;;8.50;99.90;;;;;;4991814;28;20092;-66
2022/05/08 01:20:15;;;;;;;18.67;3.92;;;8.50;99.90;;;;;;4973473;28;20053;-66
2022/05/08 01:22:41;;;;;;;22.23;4.63;;;;;;;;;;4991522;28;20136;-66
2022/05/08 01:25:07;;;;;;;22.55;4.25;;;8.60;99.90;;;;;;4973633;28;20484;-66
2022/05/08 01:27:33;;;;;;;20.65;4.35;;;;;;;;;;4991650;28;20126;-66
2022/05/08 01:29:59;;;;;;;26.00;4.53;;;;;;;;;;4973295;28;20053;-66
2022/05/08 01:32:25;;;;;;;18.05;4.10;;;;;;;;;;4974269;28;20369;-67
2022/05/08 01:34:51;;;;;;;15.15;3.88;;;;;;;;;;4991505;28;20052;-66
2022/05/08 01:37:17;;;;;;;23.52;6.03;;;;;;;;;;4991471;28;20581;-66
2022/05/08 01:39:42;;;;;;;17.88;4.00;;;;;;;;;;4972970;28;20456;-66
2022/05/08 01:42:08;;;;;;;15.52;3.83;;;8.20;99.90;;;;;;4973820;28;20313;-66
2022/05/08 01:44:34;;;;;;;21.50;4.32;;;8.50;99.90;;;;;;4991457;28;20041;-66
2022/05/08 01:49:44;;;;;;;19.02;5.35;;;8.40;99.90;;;;;;4990439;28;20505;-66
2022/05/08 01:52:10;;;;;;;18.13;4.78;;;;;;;;;;4957101;28;20042;-66
2022/05/08 01:54:36;;;;;;;16.25;3.63;;;;;;;;;;4973941;28;20038;-66
2022/05/08 01:57:02;;;;;;;12.35;3.63;;;;;;;;;;4992119;28;20185;-66
2022/05/08 01:59:28;;;;;;;18.85;3.88;;;;;;;;;;4991559;28;20042;-66
2022/05/08 02:01:54;;;;;;;23.15;4.57;;;;;;;;;;4974746;28;20068;-67
2022/05/08 02:04:20;;;;;;;14.32;3.95;;;;;;;;;;4975874;28;20043;-66
2022/05/08 02:06:46;;;;;;;23.35;4.20;;;8.20;99.90;;;;;;4960165;28;20054;-66
2022/05/08 02:09:11;;;;;;;18.35;3.67;;;8.20;99.90;;;;;;4991676;28;20607;-66
2022/05/08 02:11:37;;;;;;;24.20;5.65;;;;;;;;;;4974228;28;20045;-66
2022/05/08 02:14:04;;;;;;;11.88;3.55;;;8.20;99.90;;;;;;4974716;28;20050;-66
2022/05/08 02:16:30;;;;;;;20.35;4.53;;;8.10;99.90;;;;;;4974346;28;20496;-66
2022/05/08 02:18:55;;;;;;;15.98;3.95;;;8.10;99.90;;;;;;4973817;28;20041;-65
2022/05/08 02:21:21;;;;;;;17.13;3.85;;;8.20;99.90;;;;;;4991483;28;20421;-66
2022/05/08 02:23:47;;;;;;;19.65;3.38;;;8.20;99.90;;;;;;4974235;28;20428;-66
2022/05/08 02:26:13;;;;;;;14.27;3.25;;;8.30;99.90;;;;;;4974423;28;20049;-66
2022/05/08 02:28:41;;;;;;;20.15;3.60;;;;;;;;;;4991982;28;20181;-66
2022/05/08 02:31:08;;;;;;;24.80;7.45;;;;;;;;;;4973645;28;20144;-67
2022/05/08 02:33:33;;;;;;;18.90;3.92;;;;;;;;;;4991648;28;20509;-66
2022/05/08 02:35:59;;;;;;;11.27;3.22;;;;;;;;;;4959083;28;20042;-66
2022/05/08 02:38:25;;;;;;;21.38;3.45;;;;;;;;;;4995402;28;20062;-66
2022/05/08 02:40:52;;;;;;;18.52;3.78;;;8.20;99.90;;;;;;4977100;28;20161;-66
2022/05/08 02:43:20;;;;;;;12.95;3.50;;;8.00;99.90;;;;;;4977836;28;20049;-66
2022/05/08 02:45:47;;;;;;;18.92;4.15;;;;;;;;;;4995430;28;20094;-66
2022/05/08 02:48:13;;;;;;;20.40;3.17;;;8.00;99.90;;;;;;4977909;28;20504;-66
2022/05/08 02:50:39;;;;;;;13.82;3.42;;;;;;;;;;4977056;28;20084;-66
2022/05/08 02:53:05;;;;;;;19.15;4.22;;;8.00;99.90;;;;;;4995306;28;20078;-66
2022/05/08 02:58:33;;;;;;;15.23;3.20;;;7.80;99.90;;;;;;4995190;28;20077;-66
2022/05/08 03:01:01;;;;;;;13.68;3.67;;;7.70;99.90;;;;;;4994154;28;20042;-66
2022/05/08 03:03:26;;;;;;;14.00;3.30;;;;;;;;;;5079270;23;20047;-68
2022/05/08 03:05:53;;;;;;;18.58;3.15;;;;;;;;;;5073233;28;20036;-70
2022/05/08 03:08:19;;;;;;;18.98;3.47;;;7.90;99.90;;;;;;5074647;28;20464;-70
2022/05/08 03:13:41;;;;;;;8.52;2.50;;;7.90;99.90;;;;;;5073185;28;20055;-70
2022/05/08 03:16:09;;;;;;;13.65;3.30;;;7.80;99.90;;;;;;5073488;28;20040;-70
2022/05/08 03:18:38;;;;;;;10.95;2.97;;;7.90;99.90;;;;;;5073411;28;20040;-70
2022/05/08 03:21:04;;;;;;;12.68;2.42;;;;;;;;;;5072282;28;20037;-70
2022/05/08 03:23:30;;;;;;;10.63;2.80;;;;;;;;;;5073038;28;20517;-72
2022/05/08 03:25:56;;;;;;;22.27;4.40;;;8.10;99.90;;;;;;5073319;28;20113;-70
2022/05/08 03:28:21;;;;;;;10.55;2.55;;;7.90;99.90;;;;;;5056429;28;20040;-70
2022/05/08 03:30:47;;;;;;;13.48;3.33;;;;;;;;;;5072293;28;20049;-69
2022/05/08 03:33:13;;;;;;;14.70;3.10;;;7.90;99.90;;;;;;5074592;28;20176;-70
2022/05/08 03:35:40;;;;;;;10.95;2.42;;;7.80;99.90;;;;;;5072909;28;20047;-70
2022/05/08 03:38:07;;;;;;;13.18;2.78;;;7.80;99.90;;;;;;5056029;28;20119;-70
2022/05/08 03:40:34;;;;;;;9.40;2.72;;;7.80;99.90;;;;;;5072076;28;20037;-72
2022/05/08 03:43:00;;;;;;;12.07;2.58;;;7.90;99.90;;;;;;5073884;28;20390;-70
2022/05/08 03:45:26;;;;;;;8.02;1.88;;;;;;;;;;5055939;28;20119;-70
2022/05/08 03:47:53;;;;;;;14.02;2.40;;;7.80;99.90;;;;;;5072455;28;20037;-70
2022/05/08 03:50:22;;;;;;;14.18;3.25;;;7.80;99.90;;;;;;5071817;28;20040;-70
2022/05/08 03:52:48;;;;;;;14.82;2.83;;;8.00;99.90;;;;;;5073760;28;20514;-70
2022/05/08 03:55:15;;;;;;;14.32;3.25;;;8.00;99.90;;;;;;5056157;28;20067;-70
2022/05/08 03:57:41;;;;;;;6.30;2.20;;;8.10;99.90;;;;;;5072676;28;20516;-70
2022/05/08 04:00:08;;;;;;;12.18;2.75;;;8.00;99.90;;;;;;5071561;28;20036;-68
2022/05/08 04:02:34;;;;;;;8.77;2.40;;;;;;;;;;5073299;28;20033;-71
2022/05/08 04:05:00;;;;;;;10.07;2.47;;;;;;;;;;5072571;28;20054;-70
2022/05/08 04:07:26;;;;;;;11.93;2.45;;;;;;;;;;5073713;28;20494;-70
2022/05/08 04:09:52;;;;;;;12.45;2.80;;;;;;;;;;5071783;28;20549;-71
2022/05/08 04:12:18;;;;;;;10.55;2.22;;;8.00;99.90;;;;;;5071533;28;20036;-70
2022/05/08 04:14:43;;;;;;;10.13;2.25;;;8.00;99.90;;;;;;5071997;28;20043;-70
2022/05/08 04:17:09;;;;;;;12.95;3.97;;;;;;;;;;5072060;28;20071;-70
2022/05/08 04:19:36;;;;;;;10.05;2.28;;;;;;;;;;5054740;28;20127;-70
2022/05/08 04:24:46;;;;;;;5.97;1.83;;;;;;;;;;5071798;28;20128;-68
2022/05/08 04:27:11;;;;;;;10.70;2.40;;;7.90;99.90;;;;;;5073320;28;20064;-68
2022/05/08 04:29:37;;;;;;;16.90;2.83;;;7.80;99.90;;;;;;5071045;28;20040;-68
2022/05/08 04:32:03;;;;;;;7.25;2.15;;;8.00;99.90;;;;;;5071743;28;20045;-68
2022/05/08 04:34:29;;;;;;;6.28;1.73;;;;;;;;;;5071719;28;20434;-71
2022/05/08 04:36:55;;;;;;;9.23;1.75;;;;;;;;;;5071553;28;20036;-70
2022/05/08 04:39:21;;;;;;;9.48;1.83;;;8.00;99.90;;;;;;5070806;28;20047;-70
2022/05/08 04:41:47;;;;;;;9.98;1.90;;;;;;;;;;5072659;28;20049;-70
2022/05/08 04:44:13;;;;;;;12.18;2.55;;;8.00;99.90;;;;;;5071563;28;20039;-70
2022/05/08 04:46:39;;;;;;;13.15;2.30;;;;;;;;;;5071607;28;20040;-71
2022/05/08 04:49:05;;;;;;;5.82;1.45;;;;;;;;;;5071109;28;20517;-70
2022/05/08 04:51:31;;;;;;;10.18;2.40;;;8.30;99.90;;;;;;5072298;28;20071;-69
2022/05/08 04:53:56;;;;;;;9.23;1.98;;;8.30;99.90;;;;;;5071641;28;20482;-70
2022/05/08 04:56:22;;;;;;;15.93;2.22;;;;;;;;;;5071188;28;20119;-70
2022/05/08 04:58:48;;;;;;;10.05;2.80;;;;;;;;;;5071747;28;20471;-70
2022/05/08 05:01:14;;;;;;;7.03;2.10;;;8.40;99.90;;;;;;5070486;28;20380;-70
2022/05/08 05:03:41;;;;;;;10.63;2.47;;;8.40;99.90;;;;;;5071095;28;20086;-70
2022/05/08 05:06:07;;;;;;;9.07;2.10;;;8.50;99.90;;;;;;5071025;28;20501;-70
2022/05/08 05:08:33;;;;;;;11.90;2.22;;;;;;;;;;5072494;28;20037;-70
2022/05/08 05:10:59;;;;;;;11.65;2.63;;;8.60;99.90;;;;;;5071434;28;20044;-70
2022/05/08 05:13:25;;;;;;;8.70;1.73;;;8.70;99.90;;;;;;5072252;28;20044;-70
2022/05/08 05:15:51;;;;;;;15.40;2.97;;;;;;;;;;5070885;28;20044;-70
2022/05/08 05:18:17;;;;;;;10.13;2.85;;;;;;;;;;5072182;28;20506;-70
2022/05/08 05:20:45;;;;;;;11.18;2.60;;;;;;;;;;5071140;28;20033;-69
2022/05/08 05:23:11;;;;;;;8.00;2.25;;;8.80;99.90;;;;;;5071019;28;20051;-69
2022/05/08 05:25:37;;;;;;;11.32;2.45;;;;;;;;;;5070715;28;20037;-69
2022/05/08 05:28:03;;;;;;;12.68;2.42;;;;;;;;;;5070741;28;20086;-69
2022/05/08 05:30:29;;;;;;;13.55;2.63;;;;;;;;;;5071261;28;20048;-69
2022/05/08 05:32:55;;;;;;;8.85;2.08;;;9.10;99.90;;;;;;5070662;28;20101;-68
2022/05/08 05:35:21;;;;;;;11.90;1.80;;;;;;;;;;5070105;28;20048;-69
2022/05/08 05:37:46;;;;;;;13.43;2.22;;;9.10;99.90;;;;;;5071038;28;20044;-68
2022/05/08 05:40:12;;;;;;;7.75;2.05;;;;;;;;;;5070419;28;20079;-69
2022/05/08 05:42:38;;;;;;;6.15;2.00;;;9.30;99.90;;;;;;5071254;28;20406;-68
2022/05/08 05:45:04;;;;;;;10.77;2.70;;;;;;;;;;5070909;28;20036;-69
2022/05/08 05:50:16;;;;;;;5.20;2.08;;;9.70;99.90;;;;;;5069080;28;20059;-69
2022/05/08 05:52:42;;;;;;;14.23;2.58;;;;;;;;;;5070834;28;20041;-68
2022/05/08 05:55:08;;;;;;;10.20;2.03;;;9.60;99.90;;;;;;5069536;28;20067;-68
2022/05/08 05:57:35;;;;;;;9.15;2.15;;;9.40;99.90;;;;;;5052711;28;20048;-69
2022/05/08 06:00:01;;;;;;;3.80;1.42;;;;;;;;;;5068708;28;20176;-69
2022/05/08 06:02:27;;;;;;;11.52;2.50;;;;;;;;;;5069448;28;20036;-69
2022/05/08 06:04:53;;;;;;;15.70;3.20;;;;;;;;;;5069695;28;20036;-70
2022/05/08 06:07:19;;;;;;;14.02;2.20;;;;;;;;;;5070981;28;20138;-69
2022/05/08 06:09:45;;;;;;;6.97;2.25;;;;;;;;;;5070569;28;20498;-69
2022/05/08 06:12:12;;;;;;;9.80;2.05;;;;;;;;;;5074768;28;20044;-68
2022/05/08 06:14:38;;;;;;;13.52;1.85;;;10.20;99.90;;;;;;5073849;28;20036;-69
2022/05/08 06:17:04;;;;;;;10.82;2.30;;;;;;;;;;5074653;28;20035;-69
2022/05/08 06:19:31;;;;;;;12.00;1.90;;;;;;;;;;5074316;28;20501;-69
2022/05/08 06:21:57;;;;;;;6.28;1.98;;;10.20;99.90;;;;;;5056501;28;20137;-69
2022/05/08 06:24:22;;;;;;;8.30;2.28;;;10.40;99.90;;;;;;5073520;28;20048;-69
2022/05/08 06:26:48;;;;;;;9.85;2.33;;;10.60;99.90;;;;;;5074528;28;20032;-69
2022/05/08 06:29:14;;;;;;;7.53;2.47;;;;;;;;;;5073720;28;20044;-69
2022/05/08 06:31:40;;;;;;;8.30;2.35;;;;;;;;;;5056374;28;20044;-69
2022/05/08 06:34:08;;;;;;;6.93;1.52;;;;;;;;;;5073190;28;20098;-69
2022/05/08 06:36:33;;;;;;;11.07;1.85;;;11.20;99.90;;;;;;5073038;28;20052;-69
2022/05/08 06:38:59;;;;;;;9.93;1.63;;;;;;;;;;5073846;28;20044;-71
2022/05/08 06:41:26;;;;;;;10.15;1.63;;;11.30;99.90;;;;;;5073954;28;20051;-69
2022/05/08 06:43:53;;;;;;;4.68;1.73;;;11.10;99.90;;;;;;5073032;28;20047;-69
2022/05/08 06:46:19;;;;;;;9.00;1.73;;;;;;;;;;5072882;28;20082;-67
2022/05/08 06:48:47;;;;;;;7.63;2.55;;;11.40;99.90;;;;;;5073042;28;20036;-69
2022/05/08 06:51:13;;;;;;;5.38;1.40;;;;;;;;;;5073233;28;20045;-70
2022/05/08 06:53:39;;;;;;;10.68;3.05;;;;;;;;;;5069715;28;20051;-71
2022/05/08 06:56:05;;;;;;;18.98;2.72;;;11.60;99.90;;;;;;5059271;28;20099;-69
2022/05/08 07:01:34;;;;;;;8.93;1.85;;;;;;;;;;5070991;28;20573;-69
2022/05/08 07:01:35;;;;;;;14.40;2.33;;;;;;;;;;5067616;28;20037;-69
2022/05/08 07:04:08;;;;;;;6.28;1.65;;;10.90;99.90;;;;;;5063807;28;20115;-70
2022/05/08 07:06:35;;;;;;;8.52;1.73;;;10.90;99.90;;;;;;5066282;28;20040;-70
2022/05/08 07:09:01;;;;;;;12.40;2.25;;;10.40;99.90;;;;;;5060148;28;20482;-69
2022/05/08 07:11:27;;;;;;;15.93;2.20;;;;;;;;;;5066691;28;20094;-69
2022/05/08 07:13:53;;;;;;;12.30;2.47;;;;;;;;;;5067352;28;20094;-70
2022/05/08 07:16:19;;;;;;;8.38;1.80;;;;;;;;;;5062129;28;20041;-70
2022/05/08 07:18:45;;;;;;;11.00;1.90;;;;;;;;;;5048652;28;20059;-69
2022/05/08 07:21:11;;;;;;;11.07;2.47;;;;;;;;;;5066308;28;20123;-70
2022/05/08 07:23:38;;;;;;;6.95;1.73;;;;;;;;;;5066175;28;20041;-70
2022/05/08 07:26:05;;;;;;;10.80;2.22;;;;;;;;;;5067810;28;20506;-69
2022/05/08 07:28:31;;;;;;;9.50;2.13;;;;;;;;;;5068645;28;20033;-70
2022/05/08 07:30:57;;;;;;;28.60;3.45;;;;;;;;;;5067577;28;20102;-69
2022/05/08 07:33:23;;;;;;;5.25;1.75;;;;;;;;;;5066761;28;20494;-68
2022/05/08 07:38:33;;;;;;;11.23;1.63;;;;;;;;;;5066357;28;20135;-69
2022/05/08 07:40:59;;;;;;;9.80;1.77;;;;;;;;;;5065879;28;20135;-70
2022/05/08 07:43:25;;;;;;;11.13;2.20;;;12.80;99.90;;;;;;5044718;28;20087;-70
2022/05/08 07:45:51;;;;;;;11.75;2.05;;;12.90;99.90;;;;;;5061031;28;20257;-70
2022/05/08 07:48:17;;;;;;;12.30;2.20;;;;;;;;;;5063003;28;20101;-70
2022/05/08 07:50:44;;;;;;;13.98;2.47;;;12.70;99.90;;;;;;5059177;28;20112;-71
2022/05/08 07:53:10;;;;;;;10.93;2.60;;;12.00;99.90;;;;;;5053699;28;20052;-70
2022/05/08 07:55:35;;;;;;;9.30;2.10;;;11.90;99.90;;;;;;5071902;28;20055;-70
2022/05/08 07:58:01;;;;;;;9.75;1.95;;;;;;;;;;5071471;28;20123;-69
2022/05/08 08:00:27;;;;;;;11.15;1.77;;;;;;;;;;5071508;28;20041;-71
2022/05/08 08:02:53;;;;;;;10.52;2.20;;;;;;;;;;5069096;28;20036;-70
2022/05/08 08:05:20;;;;;;;10.52;1.85;;;;;;;;;;5072496;28;20036;-69
2022/05/08 08:07:46;;;;;;;10.48;2.72;;;;;;;;;;5077590;28;20068;-68
2022/05/08 08:10:12;;;;;;;12.32;2.80;;;11.10;99.90;;;;;;5076861;28;20044;-69
2022/05/08 08:12:39;;;;;;;7.78;2.00;;;;;;;;;;5075397;28;20490;-70
2022/05/08 08:15:05;;;;;;;7.15;1.65;;;11.40;99.90;;;;;;5079347;28;20039;-69
2022/05/08 08:17:31;;;;;;;9.20;2.08;;;11.80;99.90;;;;;;5078684;28;20069;-70
2022/05/08 08:19:57;;;;;;;11.13;1.95;;;12.30;99.90;;;;;;5082570;28;20110;-69
2022/05/08 08:22:22;;;;;;;5.30;1.75;;;;;;;;;;5077416;28;20113;-69
2022/05/08 08:24:49;;;;;;;7.65;2.00;;;12.40;99.90;;;;;;5072002;28;20439;-70
2022/05/08 08:27:19;;;;;;;8.25;1.70;;;;;;;;;;5070518;28;20419;-69
2022/05/08 08:29:45;;;;;;;7.15;1.80;;;;;;;;;;5068436;28;20086;-71
2022/05/08 08:32:11;;;;;;;10.25;2.00;;;;;;;;;;5070229;28;20490;-70
2022/05/08 08:34:36;;;;;;;8.02;1.80;;;12.90;99.90;;;;;;5070091;28;20032;-69
2022/05/08 08:37:02;;;;;;;6.97;1.58;;;13.00;99.90;;;;;;5070478;28;20452;-69
2022/05/08 08:39:28;;;;;;;9.27;1.65;;;;;;;;;;5071403;28;20040;-70
2022/05/08 08:42:20;;;;;;;11.95;2.00;;;12.90;99.90;;;;;;5068093;28;20036;-69
2022/05/08 08:47:45;;;;;;;10.82;1.95;;;13.00;99.90;;;;;;5068419;28;20044;-70
2022/05/08 08:50:11;;;;;;;7.68;1.80;;;13.20;99.90;;;;;;5065874;28;20032;-70
2022/05/08 08:52:38;;;;;;;9.20;1.90;;;13.50;99.90;;;;;;5070496;28;20128;-69
2022/05/08 08:55:08;;;;;;;8.63;2.08;;;12.90;99.90;;;;;;5071909;28;20063;-70
2022/05/08 08:57:34;;;;;;;10.95;2.03;;;;;;;;;;5070842;28;20056;-69
2022/05/08 09:00:00;;;;;;;12.30;1.98;;;;;;;;;;5066245;28;20383;-67
2022/05/08 09:02:26;;;;;;;7.30;1.70;;;12.80;99.90;;;;;;5062627;28;20127;-71
2022/05/08 09:04:54;;;;;;;7.03;1.70;;;12.50;99.90;;;;;;5065997;28;20156;-69
2022/05/08 09:07:41;;;;;;;12.27;2.28;;;13.10;99.90;;;;;;5044025;28;20035;-71
2022/05/08 09:10:08;;;;;;;12.35;2.08;;;;;;;;;;5064393;28;20478;-69
2022/05/08 09:12:34;;;;;;;10.65;2.70;;;;;;;;;;5066255;28;20037;-69
2022/05/08 09:15:00;;;;;;;15.40;2.50;;;;;;;;;;5068308;28;20043;-69
2022/05/08 09:17:43;;;;;;;11.35;2.60;;;12.60;99.90;;;;;;5069074;28;20036;-70
2022/05/08 09:20:33;;;;;;;8.75;1.85;;;12.70;99.90;;;;;;5074758;28;20047;-70
2022/05/08 09:23:19;;;;;;;13.98;2.38;;;12.80;99.90;;;;;;5054962;28;20526;-70
2022/05/08 09:25:47;;;;;;;10.98;2.03;;;13.10;99.90;;;;;;5068280;28;20042;-70
2022/05/08 09:28:14;;;;;;;6.40;2.20;;;13.50;99.90;;;;;;5063625;28;20383;-69
2022/05/08 09:31:02;;;;;;;7.53;1.73;;;13.00;99.90;;;;;;5068217;28;20072;-69
2022/05/08 09:33:32;;;;;;;8.82;2.15;;;12.80;99.90;;;;;;5068395;28;20118;-69
2022/05/08 09:36:08;;;;;;;9.52;2.00;;;13.20;99.90;;;;;;5070164;28;20059;-70
2022/05/08 09:39:01;;;;;;;6.72;1.73;;;13.50;99.90;;;;;;5068765;28;20043;-69
2022/05/08 09:41:29;;;;;;;11.17;2.20;;;14.00;99.90;;;;;;5070367;28;20045;-69
2022/05/08 09:44:09;;;;;;;13.75;2.63;;;13.50;99.90;;;;;;5067904;28;20040;-70
2022/05/08 09:46:45;;;;;;;11.93;2.33;;;13.10;99.90;;;;;;5057189;28;20040;-70
2022/05/08 09:49:22;;;;;;;7.45;1.80;;;13.10;99.90;;;;;;5059301;28;20469;-70
2022/05/08 09:51:48;;;;;;;7.75;1.92;;;12.90;99.90;;;;;;5061779;28;20451;-69
2022/05/08 09:54:16;;;;;;;16.15;2.83;;;13.20;99.90;;;;;;5064383;28;20078;-70
2022/05/08 09:56:44;;;;;;;14.70;1.85;;;12.90;99.90;;;;;;5070861;28;20502;-70
2022/05/08 09:59:14;;;;;;;11.18;2.42;;;;;;;;;;5068012;28;20032;-70
2022/05/08 10:01:41;;;;;;;16.02;3.13;;;13.20;99.90;;;;;;5068264;28;20678;-71
2022/05/08 10:04:07;;;;;;;13.02;2.58;;;13.50;99.90;;;;;;5068831;28;20115;-70
2022/05/08 10:06:35;;;;;;;7.22;2.08;;;13.70;99.90;;;;;;5070167;28;20116;-70
2022/05/08 10:14:33;;;;;;;9.88;2.22;;;13.80;99.90;;;;;;5069729;28;20041;-70
2022/05/08 10:17:08;;;;;;;7.20;2.35;;;14.20;99.90;;;;;;5068994;28;20053;-70
2022/05/08 10:19:34;;;;;;;13.05;2.35;;;14.00;99.90;;;;;;5067106;28;20494;-70
2022/05/08 10:22:06;;;;;;;4.38;1.80;;;14.40;99.90;;;;;;5069196;28;20052;-70
2022/05/08 10:24:48;;;;;;;9.32;2.20;;;14.40;99.90;;;;;;5068518;28;20437;-70
2022/05/08 10:27:24;;;;;;;13.15;2.72;;;14.60;99.90;;;;;;5068689;28;20033;-70
2022/05/08 10:29:49;;;;;;;12.95;2.40;;;14.70;99.90;;;;;;5068095;28;20048;-70
2022/05/08 10:32:31;;;;;;;7.25;2.08;;;14.00;99.90;;;;;;5068234;28;20402;-70
2022/05/08 10:35:14;;;;;;;12.05;1.63;;;14.50;99.90;;;;;;5068175;28;20506;-70
2022/05/08 10:37:40;;;;;;;7.68;1.98;;;14.30;99.90;;;;;;5064201;28;20123;-70
2022/05/08 10:40:33;;;;;;;12.95;2.40;;;14.40;99.80;;;;;;5068390;28;20553;-70
2022/05/08 10:43:18;;;;;;;14.93;2.13;;;14.50;99.90;;;;;;5062035;28;20079;-70
2022/05/08 10:45:44;;;;;;;12.40;2.75;;;13.90;99.70;;;;;;5051397;28;20506;-71
2022/05/08 10:48:21;;;;;;;11.68;2.72;;;14.40;99.90;;;;;;5067339;28;20037;-70
2022/05/08 10:50:54;;;;;;;4.75;1.67;;;14.70;99.90;;;;;;5067118;28;20049;-70
2022/05/08 10:53:35;;;;;;;7.75;3.10;;;15.10;99.90;;;;;;5068964;28;20058;-70
2022/05/08 10:56:06;;;;;;;10.35;3.45;;;14.20;99.60;;;;;;5068776;28;20043;-70
2022/05/08 10:58:37;;;;;;;13.68;2.85;;;13.80;99.50;;;;;;5072329;28;20048;-70
2022/05/08 11:01:05;;;;;;;7.25;1.73;;;14.10;99.90;;;;;;5070615;28;20062;-70
2022/05/08 11:03:35;;;;;;;9.95;1.85;;;14.20;99.90;;;;;;5073380;28;20106;-70
2022/05/08 11:06:00;;;;;;;6.85;1.85;;;14.80;99.90;;;;;;5071768;28;20087;-70
2022/05/08 11:08:29;;;;;;;12.23;2.45;;;14.90;99.90;;;;;;5071802;28;20060;-70
2022/05/08 11:11:09;;;;;;;11.25;2.22;;;14.50;99.90;;;;;;5055226;28;20071;-70
2022/05/08 11:13:43;;;;;;;8.25;2.20;;;14.30;99.70;;;;;;5059193;28;20037;-71
2022/05/08 11:16:11;;;;;;;14.93;2.10;;;14.40;99.10;;;;;;5070641;28;20126;-71
2022/05/08 11:18:37;;;;;;;11.88;2.15;;;;;;;;;;5072333;28;20398;-70
2022/05/08 11:21:05;;;;;;;9.73;2.20;;;14.80;99.40;;;;;;5069695;28;20036;-70
2022/05/08 11:23:40;;;;;;;6.60;2.50;;;14.90;99.30;;;;;;5064403;28;20047;-70
2022/05/08 11:26:11;;;;;;;8.25;1.80;;;15.10;98.10;;;;;;5072330;28;20028;-70
2022/05/08 11:28:55;;;;;;;9.32;2.78;;;15.00;99.70;;;;;;5063218;28;20076;-70
2022/05/08 11:31:23;;;;;;;15.00;3.58;;;15.10;98.50;;;;;;5071087;28;20486;-70
2022/05/08 11:36:37;;;;;;;8.52;2.22;;;14.50;97.60;;;;;;5072211;28;20052;-70
2022/05/08 11:39:10;;;;;;;7.03;2.22;;;15.00;97.90;;;;;;5072743;28;20089;-70
2022/05/08 11:41:38;;;;;;;7.10;2.03;;;15.50;99.80;;;;;;5070605;28;20128;-70
2022/05/08 11:44:15;;;;;;;7.70;2.00;;;15.60;99.20;;;;;;5072275;28;20409;-69
2022/05/08 11:46:46;;;;;;;7.28;1.77;;;15.50;98.80;;;;;;5055229;28;20033;-69
2022/05/08 11:49:15;;;;;;;8.50;2.13;;;15.50;97.60;;;;;;5070406;28;20048;-70
2022/05/08 11:51:43;;;;;;;10.32;2.08;;;15.10;97.60;;;;;;5072378;28;20048;-70
2022/05/08 11:54:23;;;;;;;8.00;2.05;;;15.10;97.10;;;;;;5070713;28;20048;-72
2022/05/08 11:56:51;;;;;;;11.25;2.63;;;15.50;98.50;;;;;;5070512;28;20137;-70
2022/05/08 11:59:22;;;;;;;7.05;2.35;;;15.50;97.70;;;;;;5070499;28;20040;-70
2022/05/08 12:01:49;;;;;;;7.55;2.22;;;15.40;97.90;;;;;;5070859;28;20118;-70
2022/05/08 12:04:26;;;;;;;9.93;2.20;;;14.90;97.30;;;;;;5071266;28;20090;-70
2022/05/08 12:07:05;;;;;;;12.02;1.70;;;14.80;97.40;;;;;;5069315;28;20517;-70
2022/05/08 12:09:36;;;;;;;9.25;2.20;;;15.40;98.10;;;;;;5053261;28;20044;-70
2022/05/08 12:12:27;;;;;;;10.25;3.08;;;16.10;98.70;;;;;;5052989;28;20344;-68
2022/05/08 12:15:03;;;;;;;6.70;1.77;;;16.20;97.20;;;;;;5063829;28;20071;-69
2022/05/08 12:17:53;;;;;;;11.80;2.47;;;16.40;96.60;;;;;;5069342;28;20401;-70
2022/05/08 12:20:33;;;;;;;14.15;3.08;;;16.10;97.70;;;;;;5068675;28;20101;-70
2022/05/08 12:23:06;;;;;;;5.53;1.60;;;16.10;96.70;;;;;;5071017;28;20041;-67
2022/05/08 12:25:35;;;;;;;10.30;2.05;;;16.10;96.10;;;;;;5066607;28;20493;-70
2022/05/08 12:28:01;;;;;;;10.52;2.35;;;16.40;96.00;;;;;;5071076;28;20102;-70
2022/05/08 12:30:26;;;;;;;7.32;2.63;;;15.90;96.30;;;;;;5068700;28;20033;-69
2022/05/08 12:32:52;;;;;;;6.85;1.67;;;16.00;96.80;;;;;;5071279;28;20037;-70
2022/05/08 12:35:19;;;;;;;9.40;2.05;;;15.90;96.70;;;;;;5070156;28;20036;-69
2022/05/08 12:37:47;;;;;;;10.60;2.38;;;16.20;96.30;;;;;;5068918;28;20048;-70
2022/05/08 12:40:14;;;;;;;16.33;2.60;;;16.10;96.10;;;;;;5052546;28;20032;-70
2022/05/08 12:42:40;;;;;;;6.57;1.83;;;15.70;96.50;;;;;;5069781;28;20060;-70
2022/05/08 12:45:06;;;;;;;7.28;2.22;;;15.80;96.60;;;;;;5071868;28;20083;-70
2022/05/08 12:47:32;;;;;;;7.53;1.80;;;16.10;96.70;;;;;;5069504;28;20028;-70
2022/05/08 12:49:58;;;;;;;6.32;1.77;;;16.10;96.20;;;;;;5051600;28;20041;-70
2022/05/08 12:52:24;;;;;;;9.27;2.47;;;16.20;96.30;;;;;;5051974;28;20040;-70
2022/05/08 12:54:49;;;;;;;9.05;2.47;;;16.10;96.10;;;;;;5048077;28;20543;-70
2022/05/08 12:59:42;;;;;;;6.55;1.70;;;15.90;96.20;;;;;;5070612;28;20090;-71
2022/05/08 13:00:01;;;;;;;9.88;2.28;;;16.20;96.30;;;;;;5069440;28;20560;-70
2022/05/08 13:02:26;;;;;;;7.57;1.83;;;16.10;95.30;;;;;;5070242;28;20032;-72
2022/05/08 13:04:53;;;;;;;10.73;2.38;;;16.50;95.60;;;;;;5069800;28;20067;-70
2022/05/08 13:07:19;;;;;;;10.10;2.40;;;16.80;96.10;;;;;;5069518;28;20025;-70
2022/05/08 13:09:44;;;;;;;10.18;2.85;;;16.50;95.90;;;;;;5069384;28;20047;-70
2022/05/08 13:12:10;;;;;;;11.05;2.50;;;16.70;96.20;;;;;;5070267;28;20044;-70
2022/05/08 13:14:37;;;;;;;9.25;2.70;;;16.50;95.70;;;;;;5070039;28;20521;-69
2022/05/08 13:17:04;;;;;;;6.28;1.98;;;16.50;95.70;;;;;;5071006;28;20043;-70
2022/05/08 13:19:33;;;;;;;7.82;1.88;;;16.20;95.90;;;;;;5067894;28;20036;-72
2022/05/08 13:22:00;;;;;;;5.65;2.40;;;16.40;96.20;;;;;;5071136;28;20036;-70
2022/05/08 13:24:26;;;;;;;7.00;2.00;;;17.40;96.30;;;;;;5068662;28;20037;-70
2022/05/08 13:26:55;;;;;;;10.20;2.83;;;16.20;96.10;;;;;;5069708;28;20043;-71
2022/05/08 13:29:21;;;;;;;7.88;1.90;;;16.00;96.10;;;;;;5069377;28;20037;-69
2022/05/08 13:31:47;;;;;;;13.20;2.47;;;16.70;96.40;;;;;;5068482;28;20048;-70
2022/05/08 13:34:15;;;;;;;6.05;1.92;;;15.90;96.60;;;;;;5069463;28;20051;-70
2022/05/08 13:36:40;;;;;;;4.72;1.70;;;15.80;97.20;;;;;;5068237;28;20032;-70
2022/05/08 13:39:06;;;;;;;7.15;1.75;;;15.70;97.30;;;;;;5068601;28;20055;-72
2022/05/08 13:41:33;;;;;;;9.52;2.47;;;15.90;97.90;;;;;;5069930;28;20127;-70
2022/05/08 13:43:58;;;;;;;9.85;2.17;;;15.90;96.80;;;;;;5070261;28;20040;-70
2022/05/08 13:46:24;;;;;;;7.95;1.80;;;15.70;96.90;;;;;;5070939;28;20032;-70
2022/05/08 13:48:49;;;;;;;8.27;2.47;;;16.00;96.70;;;;;;5066862;28;20053;-70
2022/05/08 13:51:15;;;;;;;11.15;2.85;;;15.70;97.00;;;;;;5068583;28;20040;-71
2022/05/08 13:53:41;;;;;;;7.07;2.40;;;15.70;97.50;;;;;;5069547;28;20036;-70